createdAt,value
2018-02-11T00:00:27.744Z,36.70
2018-02-11T00:02:55.304Z,37.00
2018-02-11T00:05:23.600Z,37.37
2018-02-11T00:07:51.450Z,37.70
2018-02-11T00:10:19.110Z,36.23
2018-02-11T00:12:47.570Z,36.43
2018-02-11T00:15:15.944Z,35.53
2018-02-11T00:17:44.296Z,34.70
2018-02-11T00:20:12.626Z,35.23
2018-02-11T00:22:40.158Z,36.10
2018-02-11T00:25:08.488Z,37.70
2018-02-11T00:27:36.106Z,35.70
2018-02-11T00:30:03.962Z,32.97
2018-02-11T00:32:32.291Z,36.30
2018-02-11T00:35:00.760Z,34.30
2018-02-11T00:37:33.912Z,36.43
2018-02-11T00:40:01.417Z,33.80
2018-02-11T00:42:28.969Z,34.00
2018-02-11T00:44:57.085Z,35.00
2018-02-11T00:47:26.347Z,36.30
2018-02-11T00:49:53.993Z,32.70
2018-02-11T00:52:21.862Z,34.83
2018-02-11T00:54:49.639Z,34.90
2018-02-11T00:57:17.261Z,33.30
2018-02-11T00:59:44.975Z,32.53
2018-02-11T01:02:12.487Z,32.33
2018-02-11T01:04:40.791Z,33.60
2018-02-11T01:07:08.425Z,35.93
2018-02-11T01:09:35.941Z,31.93
2018-02-11T01:12:03.456Z,34.17
2018-02-11T01:14:31.232Z,33.77
2018-02-11T01:16:58.958Z,34.67
2018-02-11T01:19:27.438Z,34.10
2018-02-11T01:21:55.815Z,35.10
2018-02-11T01:24:24.238Z,35.93
2018-02-11T01:26:51.923Z,34.47
2018-02-11T01:29:19.538Z,34.80
2018-02-11T01:31:47.782Z,33.33
2018-02-11T01:34:16.022Z,33.27
2018-02-11T01:36:43.510Z,34.73
2018-02-11T01:39:12.534Z,32.77
2018-02-11T01:41:40.781Z,32.47
2018-02-11T01:44:08.378Z,34.67
2018-02-11T01:46:36.622Z,34.20
2018-02-11T01:49:04.096Z,33.47
2018-02-11T01:51:32.874Z,34.10
2018-02-11T01:54:01.117Z,34.87
2018-02-11T01:56:28.621Z,33.27
2018-02-11T01:58:56.891Z,35.47
2018-02-11T02:01:24.373Z,32.00
2018-02-11T02:03:52.637Z,34.47
2018-02-11T02:06:21.011Z,33.67
2018-02-11T02:08:49.267Z,34.07
2018-02-11T02:11:16.732Z,34.43
2018-02-11T02:13:44.998Z,34.57
2018-02-11T02:16:12.583Z,33.17
2018-02-11T02:18:40.865Z,33.00
2018-02-11T02:21:09.117Z,33.20
2018-02-11T02:23:36.701Z,34.07
2018-02-11T02:26:05.063Z,34.93
2018-02-11T02:28:32.552Z,35.90
2018-02-11T02:31:00.807Z,33.07
2018-02-11T02:33:28.787Z,34.10
2018-02-11T02:35:57.046Z,33.27
2018-02-11T02:38:25.338Z,32.20
2018-02-11T02:40:53.582Z,33.80
2018-02-11T02:43:21.078Z,34.13
2018-02-11T02:45:49.414Z,34.53
2018-02-11T02:48:16.894Z,35.80
2018-02-11T02:50:44.378Z,33.73
2018-02-11T02:53:11.870Z,34.30
2018-02-11T02:55:39.342Z,35.43
2018-02-11T02:58:06.941Z,33.80
2018-02-11T03:00:35.189Z,33.47
2018-02-11T03:03:02.678Z,34.07
2018-02-11T03:05:30.951Z,33.20
2018-02-11T03:07:59.239Z,34.97
2018-02-11T03:10:27.537Z,33.17
2018-02-11T03:12:55.061Z,34.63
2018-02-11T03:15:23.337Z,33.07
2018-02-11T03:17:51.619Z,31.90
2018-02-11T03:20:19.878Z,31.47
2018-02-11T03:22:47.379Z,33.07
2018-02-11T03:25:14.914Z,30.67
2018-02-11T03:27:43.174Z,31.30
2018-02-11T03:30:10.650Z,33.47
2018-02-11T03:32:38.898Z,30.33
2018-02-11T03:35:06.382Z,32.17
2018-02-11T03:37:34.650Z,30.73
2018-02-11T03:40:02.128Z,31.87
2018-02-11T03:42:30.386Z,31.53
2018-02-11T03:44:58.639Z,30.63
2018-02-11T03:47:26.121Z,31.30
2018-02-11T03:49:54.388Z,32.27
2018-02-11T03:52:21.857Z,33.90
2018-02-11T03:54:50.129Z,33.90
2018-02-11T03:57:17.643Z,34.80
2018-02-11T03:59:45.147Z,35.00
2018-02-11T04:02:12.715Z,36.53
2018-02-11T04:04:40.971Z,34.83
2018-02-11T04:07:08.551Z,36.97
2018-02-11T04:09:36.803Z,36.40
2018-02-11T04:12:05.807Z,38.73
2018-02-11T04:14:33.285Z,39.73
2018-02-11T04:17:01.535Z,39.23
2018-02-11T04:19:29.838Z,39.27
2018-02-11T04:21:58.110Z,41.27
2018-02-11T04:24:26.355Z,38.97
2018-02-11T04:26:53.942Z,40.57
2018-02-11T04:29:22.202Z,40.57
2018-02-11T04:31:51.750Z,42.17
2018-02-11T04:34:19.245Z,40.07
2018-02-11T04:36:46.722Z,39.00
2018-02-11T04:39:15.758Z,39.27
2018-02-11T04:41:43.308Z,38.03
2018-02-11T04:44:11.573Z,39.43
2018-02-11T04:46:39.821Z,40.13
2018-02-11T04:49:07.320Z,37.47
2018-02-11T04:51:35.585Z,38.20
2018-02-11T04:54:03.827Z,38.93
2018-02-11T04:56:33.005Z,53.60
2018-02-11T04:59:00.483Z,43.53
2018-02-11T05:01:27.963Z,36.90
2018-02-11T05:03:56.216Z,37.73
2018-02-11T05:06:23.788Z,31.53
2018-02-11T05:08:51.495Z,35.77
2018-02-11T05:11:18.983Z,32.57
2018-02-11T05:13:46.474Z,33.33
2018-02-11T05:16:14.715Z,32.37
2018-02-11T05:18:42.203Z,31.30
2018-02-11T05:21:09.692Z,34.27
2018-02-11T05:23:37.934Z,33.30
2018-02-11T05:26:05.422Z,31.40
2018-02-11T05:28:33.668Z,33.37
2018-02-11T05:31:01.146Z,34.23
2018-02-11T05:33:28.714Z,32.33
2018-02-11T05:35:56.959Z,32.63
2018-02-11T05:38:25.201Z,30.10
2018-02-11T05:40:52.698Z,32.47
2018-02-11T05:43:20.183Z,32.87
2018-02-11T05:45:48.425Z,30.57
2018-02-11T05:48:15.925Z,29.37
2018-02-11T05:50:44.170Z,29.10
2018-02-11T05:53:11.745Z,32.67
2018-02-11T05:55:39.233Z,30.80
2018-02-11T05:58:06.705Z,30.33
2018-02-11T06:00:34.478Z,29.43
2018-02-11T06:03:01.971Z,26.80
2018-02-11T06:05:30.963Z,28.50
2018-02-11T06:07:58.439Z,26.50
2018-02-11T06:10:26.723Z,28.20
2018-02-11T06:12:55.030Z,26.13
2018-02-11T06:15:22.510Z,27.00
2018-02-11T06:17:50.007Z,27.90
2018-02-11T06:20:17.509Z,27.33
2018-02-11T06:22:44.972Z,25.70
2018-02-11T06:25:12.520Z,26.47
2018-02-11T06:27:40.042Z,24.47
2018-02-11T06:30:07.526Z,24.03
2018-02-11T06:32:35.022Z,22.43
2018-02-11T06:35:02.535Z,24.53
2018-02-11T06:37:30.778Z,21.93
2018-02-11T06:39:59.074Z,24.03
2018-02-11T06:42:27.322Z,22.93
2018-02-11T06:44:54.807Z,24.00
2018-02-11T06:47:23.181Z,22.83
2018-02-11T06:49:50.661Z,22.53
2018-02-11T06:52:18.907Z,20.97
2018-02-11T06:54:46.489Z,22.73
2018-02-11T06:57:14.739Z,21.60
2018-02-11T06:59:43.729Z,21.53
2018-02-11T07:02:11.223Z,21.73
2018-02-11T07:04:39.466Z,20.17
2018-02-11T07:07:06.945Z,21.23
2018-02-11T07:09:35.247Z,20.53
2018-02-11T07:12:02.787Z,19.47
2018-02-11T07:14:31.039Z,19.70
2018-02-11T07:16:58.566Z,20.30
2018-02-11T07:19:26.043Z,19.63
2018-02-11T07:21:53.528Z,18.10
2018-02-11T07:24:21.818Z,18.70
2018-02-11T07:26:50.074Z,20.33
2018-02-11T07:29:17.554Z,18.80
2018-02-11T07:31:45.830Z,18.70
2018-02-11T07:34:14.082Z,18.70
2018-02-11T07:36:42.348Z,18.30
2018-02-11T07:39:09.849Z,17.50
2018-02-11T07:41:37.330Z,16.37
2018-02-11T07:44:04.804Z,18.10
2018-02-11T07:46:33.325Z,17.15
2018-02-11T07:49:00.793Z,16.80
2018-02-11T07:51:29.047Z,15.80
2018-02-11T07:53:58.054Z,14.87
2018-02-11T07:56:25.620Z,15.60
2018-02-11T07:58:53.897Z,14.70
2018-02-11T08:01:22.171Z,15.03
2018-02-11T08:03:50.427Z,15.20
2018-02-11T08:06:17.905Z,14.73
2018-02-11T08:08:46.190Z,17.40
2018-02-11T08:11:14.441Z,15.17
2018-02-11T08:13:42.021Z,24.30
2018-02-11T08:16:10.311Z,19.17
2018-02-11T08:18:38.558Z,14.90
2018-02-11T08:21:07.555Z,14.10
2018-02-11T08:23:35.047Z,12.50
2018-02-11T08:26:02.583Z,15.50
2018-02-11T08:28:30.027Z,14.77
2018-02-11T08:30:57.514Z,13.10
2018-02-11T08:33:25.766Z,13.33
2018-02-11T08:35:54.002Z,13.17
2018-02-11T08:38:21.492Z,13.57
2018-02-11T08:40:48.974Z,11.40
2018-02-11T08:43:17.222Z,12.97
2018-02-11T08:45:44.719Z,11.77
2018-02-11T08:48:12.961Z,12.00
2018-02-11T08:50:41.947Z,12.43
2018-02-11T08:53:09.536Z,11.93
2018-02-11T08:55:37.811Z,11.27
2018-02-11T08:58:06.106Z,12.30
2018-02-11T09:00:33.607Z,12.57
2018-02-11T09:03:01.137Z,11.87
2018-02-11T09:05:28.617Z,11.33
2018-02-11T09:07:56.119Z,10.37
2018-02-11T09:10:24.363Z,11.50
2018-02-11T09:12:51.839Z,11.47
2018-02-11T09:15:19.422Z,12.07
2018-02-11T09:17:46.939Z,10.53
2018-02-11T09:20:14.410Z,10.90
2018-02-11T09:22:41.898Z,9.93
2018-02-11T09:25:10.143Z,9.10
2018-02-11T09:27:37.622Z,8.83
2018-02-11T09:30:05.879Z,9.33
2018-02-11T09:32:33.361Z,9.50
2018-02-11T09:35:01.608Z,10.90
2018-02-11T09:37:29.088Z,9.60
2018-02-11T09:39:57.460Z,10.00
2018-02-11T09:42:25.797Z,9.27
2018-02-11T09:44:53.448Z,8.60
2018-02-11T09:47:20.979Z,9.70
2018-02-11T09:49:49.748Z,8.87
2018-02-11T09:52:18.172Z,16.10
2018-02-11T09:54:46.393Z,15.77
2018-02-11T09:57:14.148Z,10.13
2018-02-11T09:59:41.982Z,9.47
2018-02-11T10:02:09.618Z,9.07
2018-02-11T10:04:38.225Z,9.20
2018-02-11T10:07:06.811Z,8.70
2018-02-11T10:09:34.515Z,7.87
2018-02-11T10:12:03.607Z,8.35
2018-02-11T10:14:31.333Z,8.53
2018-02-11T10:16:58.905Z,8.50
2018-02-11T10:19:26.584Z,8.30
2018-02-11T10:21:54.421Z,8.53
2018-02-11T10:24:22.085Z,9.53
2018-02-11T10:26:49.746Z,8.30
2018-02-11T10:29:17.382Z,8.70
2018-02-11T10:31:45.175Z,8.53
2018-02-11T10:34:12.807Z,7.87
2018-02-11T10:36:41.076Z,8.90
2018-02-11T10:39:08.555Z,7.50
2018-02-11T10:41:36.034Z,8.13
2018-02-11T10:44:03.522Z,8.17
2018-02-11T10:46:30.998Z,9.60
2018-02-11T10:48:59.254Z,9.57
2018-02-11T10:51:26.752Z,9.30
2018-02-11T10:53:55.046Z,8.20
2018-02-11T10:56:22.518Z,8.87
2018-02-11T10:58:50.034Z,9.63
2018-02-11T11:01:18.306Z,7.93
2018-02-11T11:03:46.554Z,8.80
2018-02-11T11:06:14.044Z,8.53
2018-02-11T11:08:41.606Z,7.57
2018-02-11T11:11:09.867Z,7.90
2018-02-11T11:13:37.353Z,8.07
2018-02-11T11:16:05.651Z,9.30
2018-02-11T11:18:33.143Z,8.53
2018-02-11T11:21:00.646Z,8.90
2018-02-11T11:23:28.903Z,8.20
2018-02-11T11:25:56.382Z,8.13
2018-02-11T11:28:24.647Z,8.63
2018-02-11T11:30:52.931Z,9.50
2018-02-11T11:33:21.179Z,9.10
2018-02-11T11:35:48.763Z,9.80
2018-02-11T11:38:17.041Z,7.93
2018-02-11T11:40:45.403Z,8.97
2018-02-11T11:43:13.825Z,9.00
2018-02-11T11:45:41.630Z,9.23
2018-02-11T11:48:09.470Z,8.87
2018-02-11T11:50:37.166Z,8.43
2018-02-11T11:53:05.594Z,8.00
2018-02-11T11:55:33.219Z,8.93
2018-02-11T11:58:00.780Z,7.90
2018-02-11T12:00:28.258Z,10.00
2018-02-11T12:02:56.510Z,8.73
2018-02-11T12:05:24.002Z,8.50
2018-02-11T12:07:52.265Z,9.53
2018-02-11T12:10:20.512Z,8.70
2018-02-11T12:12:47.993Z,9.00
2018-02-11T12:15:16.847Z,9.43
2018-02-11T12:17:44.322Z,8.23
2018-02-11T12:20:11.813Z,9.30
2018-02-11T12:22:40.059Z,9.20
2018-02-11T12:25:07.583Z,9.30
2018-02-11T12:27:35.815Z,9.47
2018-02-11T12:30:04.055Z,8.60
2018-02-11T12:32:31.535Z,8.97
2018-02-11T12:34:59.091Z,9.93
2018-02-11T12:37:26.569Z,8.90
2018-02-11T12:39:54.814Z,10.07
2018-02-11T12:42:22.305Z,10.20
2018-02-11T12:44:50.544Z,9.10
2018-02-11T12:47:18.155Z,9.40
2018-02-11T12:49:45.678Z,10.97
2018-02-11T12:52:13.164Z,8.97
2018-02-11T12:54:41.406Z,15.10
2018-02-11T12:57:08.906Z,10.27
2018-02-11T12:59:36.546Z,10.80
2018-02-11T13:02:04.798Z,10.57
2018-02-11T13:04:32.286Z,10.00
2018-02-11T13:07:00.564Z,10.40
2018-02-11T13:09:28.810Z,11.23
2018-02-11T13:11:56.297Z,19.60
2018-02-11T13:14:24.561Z,21.30
2018-02-11T13:16:52.817Z,14.10
2018-02-11T13:19:20.307Z,12.33
2018-02-11T13:21:48.605Z,9.80
2018-02-11T13:24:16.083Z,11.87
2018-02-11T13:26:43.579Z,11.97
2018-02-11T13:29:11.059Z,11.10
2018-02-11T13:31:39.319Z,12.77
2018-02-11T13:34:07.879Z,10.53
2018-02-11T13:36:35.363Z,12.30
2018-02-11T13:39:02.839Z,12.30
2018-02-11T13:41:31.099Z,12.57
2018-02-11T13:43:58.672Z,13.30
2018-02-11T13:46:26.908Z,12.30
2018-02-11T13:48:54.506Z,11.80
2018-02-11T13:51:22.757Z,13.47
2018-02-11T13:53:50.358Z,14.93
2018-02-11T13:56:18.664Z,14.50
2018-02-11T13:58:46.176Z,24.03
2018-02-11T14:01:13.666Z,18.57
2018-02-11T14:03:41.192Z,24.43
2018-02-11T14:06:09.434Z,19.53
2018-02-11T14:08:36.921Z,16.20
2018-02-11T14:11:04.406Z,15.40
2018-02-11T14:13:31.890Z,13.63
2018-02-11T14:15:59.371Z,15.37
2018-02-11T14:18:26.857Z,15.80
2018-02-11T14:20:55.171Z,13.53
2018-02-11T14:23:22.654Z,14.70
2018-02-11T14:25:50.317Z,12.00
2018-02-11T14:28:17.807Z,12.70
2018-02-11T14:30:45.390Z,12.20
2018-02-11T14:33:13.648Z,13.33
2018-02-11T14:35:41.898Z,13.60
2018-02-11T14:38:09.378Z,13.93
2018-02-11T14:40:36.868Z,14.30
2018-02-11T14:43:04.349Z,16.03
2018-02-11T14:45:31.873Z,15.80
2018-02-11T14:47:59.426Z,14.87
2018-02-11T14:50:27.670Z,15.47
2018-02-11T14:52:55.150Z,13.83
2018-02-11T14:55:23.434Z,15.33
2018-02-11T14:57:51.692Z,14.10
2018-02-11T15:00:19.170Z,14.20
2018-02-11T15:02:47.437Z,16.30
2018-02-11T15:05:14.970Z,15.13
2018-02-11T15:07:42.564Z,59.90
2018-02-11T15:10:10.215Z,18.03
2018-02-11T15:12:38.525Z,14.87
2018-02-11T15:15:06.103Z,20.73
2018-02-11T15:17:33.653Z,16.53
2018-02-11T15:20:01.871Z,25.47
2018-02-11T15:22:29.361Z,18.07
2018-02-11T15:24:57.631Z,16.37
2018-02-11T15:27:25.879Z,18.80
2018-02-11T15:29:53.366Z,17.10
2018-02-11T15:32:21.649Z,17.00
2018-02-11T15:34:49.912Z,17.10
2018-02-11T15:37:18.158Z,16.90
2018-02-11T15:39:45.648Z,15.87
2018-02-11T15:42:13.119Z,17.50
2018-02-11T15:44:41.362Z,17.07
2018-02-11T15:47:08.860Z,17.57
2018-02-11T15:49:37.143Z,18.07
2018-02-11T15:52:04.710Z,17.63
2018-02-11T15:54:32.410Z,15.10
2018-02-11T15:56:59.894Z,15.43
2018-02-11T15:59:27.474Z,18.23
2018-02-11T16:01:55.725Z,16.97
2018-02-11T16:04:23.224Z,18.33
2018-02-11T16:06:50.703Z,16.77
2018-02-11T16:09:18.244Z,18.80
2018-02-11T16:11:45.719Z,16.70
2018-02-11T16:14:13.239Z,17.10
2018-02-11T16:16:41.492Z,17.67
2018-02-11T16:19:10.483Z,18.33
2018-02-11T16:21:37.979Z,16.97
2018-02-11T16:24:05.504Z,20.20
2018-02-11T16:26:34.479Z,23.30
2018-02-11T16:29:01.963Z,19.23
2018-02-11T16:31:30.211Z,20.17
2018-02-11T16:33:57.706Z,20.10
2018-02-11T16:36:25.954Z,46.80
2018-02-11T16:38:53.571Z,18.90
2018-02-11T16:41:21.385Z,19.00
2018-02-11T16:43:48.881Z,19.17
2018-02-11T16:46:17.139Z,21.20
2018-02-11T16:48:44.614Z,24.40
2018-02-11T16:51:12.854Z,22.83
2018-02-11T16:53:40.346Z,21.00
2018-02-11T16:56:07.842Z,21.77
2018-02-11T16:58:35.926Z,26.00
2018-02-11T17:01:03.436Z,23.57
2018-02-11T17:03:31.682Z,22.67
2018-02-11T17:05:59.970Z,20.87
2018-02-11T17:08:28.250Z,20.33
2018-02-11T17:10:56.534Z,26.17
2018-02-11T17:13:24.781Z,22.17
2018-02-11T17:15:53.021Z,20.90
2018-02-11T17:18:20.507Z,21.80
2018-02-11T17:20:48.029Z,23.47
2018-02-11T17:23:15.621Z,27.40
2018-02-11T17:25:43.773Z,23.00
2018-02-11T17:28:11.337Z,25.80
2018-02-11T17:30:38.835Z,26.33
2018-02-11T17:33:06.319Z,30.23
2018-02-11T17:35:34.671Z,49.93
2018-02-11T17:38:03.081Z,27.00
2018-02-11T17:40:30.704Z,22.13
2018-02-11T17:42:58.625Z,21.27
2018-02-11T17:45:26.499Z,19.50
2018-02-11T17:47:54.034Z,20.83
2018-02-11T17:50:22.329Z,23.77
2018-02-11T17:52:49.910Z,23.07
2018-02-11T17:55:17.452Z,37.07
2018-02-11T17:57:45.054Z,26.23
2018-02-11T18:00:12.579Z,22.27
2018-02-11T18:02:40.112Z,20.27
2018-02-11T18:05:08.861Z,28.63
2018-02-11T18:07:36.456Z,24.23
2018-02-11T18:10:04.054Z,23.50
2018-02-11T18:12:31.599Z,23.43
2018-02-11T18:14:59.206Z,29.53
2018-02-11T18:17:26.908Z,26.50
2018-02-11T18:19:54.652Z,26.90
2018-02-11T18:22:22.503Z,25.43
2018-02-11T18:24:50.857Z,24.00
2018-02-11T18:27:18.465Z,22.27
2018-02-11T18:29:47.077Z,21.10
2018-02-11T18:32:14.603Z,21.23
2018-02-11T18:34:42.884Z,22.30
2018-02-11T18:37:11.402Z,21.60
2018-02-11T18:39:39.811Z,60.57
2018-02-11T18:42:07.299Z,27.33
2018-02-11T18:44:35.571Z,28.33
2018-02-11T18:47:03.275Z,25.40
2018-02-11T18:49:30.825Z,31.77
2018-02-11T18:51:58.530Z,33.00
2018-02-11T18:54:26.908Z,37.30
2018-02-11T18:56:54.416Z,26.87
2018-02-11T18:59:23.453Z,26.37
2018-02-11T19:01:51.266Z,28.10
2018-02-11T19:04:19.528Z,27.50
2018-02-11T19:06:47.032Z,26.50
2018-02-11T19:09:14.623Z,32.23
2018-02-11T19:11:42.120Z,29.23
2018-02-11T19:14:10.411Z,28.03
2018-02-11T19:16:37.993Z,28.77
2018-02-11T19:19:05.535Z,27.07
2018-02-11T19:21:33.238Z,27.63
2018-02-11T19:24:00.743Z,27.63
2018-02-11T19:26:29.020Z,26.10
2018-02-11T19:28:58.145Z,27.47
2018-02-11T19:31:25.633Z,26.10
2018-02-11T19:33:53.127Z,25.97
2018-02-11T19:36:21.383Z,29.17
2018-02-11T19:38:48.878Z,27.07
2018-02-11T19:41:16.431Z,29.23
2018-02-11T19:43:43.964Z,28.53
2018-02-11T19:46:11.455Z,30.07
2018-02-11T19:48:38.960Z,34.23
2018-02-11T19:51:07.271Z,34.23
2018-02-11T19:53:35.528Z,32.57
2018-02-11T19:56:03.770Z,34.77
2018-02-11T19:58:31.270Z,37.80
2018-02-11T20:00:58.776Z,38.93
2018-02-11T20:03:26.254Z,29.33
2018-02-11T20:05:53.754Z,28.77
2018-02-11T20:08:22.004Z,27.03
2018-02-11T20:10:49.499Z,26.70
2018-02-11T20:13:17.782Z,27.80
2018-02-11T20:15:46.038Z,27.83
2018-02-11T20:18:13.514Z,24.40
2018-02-11T20:20:41.773Z,26.00
2018-02-11T20:23:09.265Z,45.70
2018-02-11T20:25:36.762Z,78.23
2018-02-11T20:28:04.261Z,30.07
2018-02-11T20:30:32.527Z,28.27
2018-02-11T20:33:00.008Z,32.13
2018-02-11T20:35:27.509Z,29.07
2018-02-11T20:37:54.999Z,28.50
2018-02-11T20:40:23.275Z,25.97
2018-02-11T20:42:50.791Z,26.57
2018-02-11T20:45:18.303Z,26.27
2018-02-11T20:47:46.558Z,26.00
2018-02-11T20:50:14.091Z,26.80
2018-02-11T20:52:41.579Z,26.60
2018-02-11T20:55:09.083Z,27.00
2018-02-11T20:57:36.595Z,28.87
2018-02-11T21:00:04.076Z,28.67
2018-02-11T21:02:32.330Z,31.73
2018-02-11T21:04:59.826Z,32.27
2018-02-11T21:07:27.366Z,31.57
2018-02-11T21:09:55.626Z,29.20
2018-02-11T21:12:23.200Z,29.23
2018-02-11T21:14:51.478Z,28.60
2018-02-11T21:17:19.945Z,54.40
2018-02-11T21:19:47.442Z,41.17
2018-02-11T21:22:14.987Z,29.73
2018-02-11T21:24:42.538Z,30.17
2018-02-11T21:27:10.831Z,34.90
2018-02-11T21:29:38.306Z,33.57
2018-02-11T21:32:05.791Z,29.60
2018-02-11T21:34:33.299Z,30.10
2018-02-11T21:37:00.777Z,30.40
2018-02-11T21:39:28.263Z,26.47
2018-02-11T21:41:55.786Z,23.83
2018-02-11T21:44:23.339Z,23.03
2018-02-11T21:46:51.710Z,23.73
2018-02-11T21:49:19.433Z,22.60
2018-02-11T21:51:46.943Z,22.63
2018-02-11T21:54:14.444Z,20.73
2018-02-11T21:56:41.957Z,21.97
2018-02-11T21:59:09.445Z,21.17
2018-02-11T22:01:36.931Z,21.03
2018-02-11T22:04:04.426Z,20.83
2018-02-11T22:06:31.917Z,20.80
2018-02-11T22:08:59.422Z,20.87
2018-02-11T22:11:26.958Z,21.90
2018-02-11T22:13:54.427Z,21.83
2018-02-11T22:16:21.906Z,22.67
2018-02-11T22:18:50.168Z,22.97
2018-02-11T22:21:17.703Z,22.43
2018-02-11T22:23:45.194Z,22.10
2018-02-11T22:26:13.512Z,22.50
2018-02-11T22:28:40.992Z,24.00
2018-02-11T22:31:08.472Z,24.27
2018-02-11T22:33:36.062Z,22.73
2018-02-11T22:36:04.335Z,23.33
2018-02-11T22:38:32.602Z,23.10
2018-02-11T22:41:00.863Z,22.90
2018-02-11T22:43:29.167Z,24.47
2018-02-11T22:45:56.667Z,22.90
2018-02-11T22:48:24.171Z,24.43
2018-02-11T22:50:52.552Z,21.20
2018-02-11T22:53:20.838Z,22.90
2018-02-11T22:55:49.089Z,21.73
2018-02-11T22:58:16.771Z,23.10
2018-02-11T23:00:45.011Z,20.70
2018-02-11T23:03:12.537Z,20.30
2018-02-11T23:05:40.029Z,19.37
2018-02-11T23:08:07.506Z,19.87
2018-02-11T23:10:35.092Z,19.30
2018-02-11T23:13:03.358Z,19.47
2018-02-11T23:15:31.629Z,18.73
2018-02-11T23:17:59.894Z,31.43
2018-02-11T23:20:27.395Z,41.07
2018-02-11T23:22:55.622Z,24.20
2018-02-11T23:25:23.113Z,19.47
2018-02-11T23:27:51.353Z,18.60
2018-02-11T23:30:18.937Z,17.90
2018-02-11T23:32:47.221Z,19.43
2018-02-11T23:35:15.494Z,16.97
2018-02-11T23:37:43.789Z,18.07
2018-02-11T23:40:11.279Z,17.70
2018-02-11T23:42:38.757Z,17.20
2018-02-11T23:45:06.303Z,16.83
2018-02-11T23:47:33.803Z,16.80
2018-02-11T23:50:02.089Z,17.00
2018-02-11T23:52:29.565Z,17.00
2018-02-11T23:54:57.127Z,17.90
2018-02-11T23:57:24.602Z,15.77
2018-02-11T23:59:52.134Z,16.33
